Time;durP1;ratioP1;P1;durP2;ratioP2;P2;SDS_P1;SDS_P2;PMS_P1;PMS_P2;Temp;Humidity;BMP_temperature;BMP_pressure;BME280_temperature;BME280_humidity;BME280_pressure;Samples;Min_cycle;Max_cycle;Signal;HPM_P1;HPM_P2
2022/09/16 00:00:31;;;;;;;10.10;1.77;;;;;;;;;;5041229;28;20350;-69
2022/09/16 00:02:58;;;;;;;6.40;0.77;;;;;;;;;;5038897;28;20041;-69
2022/09/16 00:05:24;;;;;;;4.70;0.88;;;;;;;;;;5037214;28;20050;-69
2022/09/16 00:07:51;;;;;;;7.20;1.17;;;;;;;;;;5042404;28;20041;-69
2022/09/16 00:10:17;;;;;;;6.65;1.10;;;;;;;;;;5041663;28;20397;-69
2022/09/16 00:12:43;;;;;;;3.75;0.90;;;;;;;;;;5034006;28;20085;-69
2022/09/16 00:15:10;;;;;;;6.88;1.15;;;;;;;;;;5044650;28;20108;-69
2022/09/16 00:17:36;;;;;;;8.25;0.88;;;;;;;;;;5033941;28;20044;-69
2022/09/16 00:20:03;;;;;;;4.30;0.70;;;;;;;;;;5041220;28;20083;-69
2022/09/16 00:22:29;;;;;;;7.50;1.10;;;;;;;;;;5039420;28;20041;-69
2022/09/16 00:24:56;;;;;;;5.97;0.85;;;;;;;;;;5038909;28;20050;-68
2022/09/16 00:27:22;;;;;;;9.23;1.35;;;;;;;;;;5045561;28;20049;-68
2022/09/16 00:29:48;;;;;;;13.52;1.60;;;;;;;;;;5045475;28;20084;-68
2022/09/16 00:32:14;;;;;;;15.15;1.90;;;;;;;;;;5039499;28;20052;-68
2022/09/16 00:34:40;;;;;;;7.68;1.10;;;;;;;;;;5033070;28;20080;-68
2022/09/16 00:37:07;;;;;;;8.30;1.40;;;;;;;;;;5039286;28;20053;-68
2022/09/16 00:39:34;;;;;;;8.52;1.10;;;;;;;;;;5037242;28;20033;-68
2022/09/16 00:42:01;;;;;;;15.63;2.25;;;;;;;;;;5046288;28;20443;-68
2022/09/16 00:44:46;;;;;;;9.70;1.30;;;;;;;;;;5043405;28;20041;-68
2022/09/16 00:47:14;;;;;;;7.80;0.98;;;;;;;;;;5041775;28;20049;-68
2022/09/16 00:49:40;;;;;;;6.20;1.95;;;;;;;;;;5038382;28;20128;-68
2022/09/16 00:52:06;;;;;;;7.07;1.33;;;;;;;;;;5039543;28;20056;-68
2022/09/16 00:54:34;;;;;;;12.82;1.60;;;;;;;;;;5039804;28;20181;-69
2022/09/16 00:57:01;;;;;;;10.80;1.88;;;;;;;;;;5037811;28;20047;-69
2022/09/16 00:59:33;;;;;;;8.57;1.58;;;;;;;;;;5032507;28;21384;-68
2022/09/16 01:02:02;;;;;;;9.60;1.23;;;;;;;;;;5035792;28;20776;-68
2022/09/16 01:04:32;;;;;;;11.02;1.52;;;;;;;;;;5043535;28;20496;-68
2022/09/16 01:06:59;;;;;;;9.25;1.48;;;;;;;;;;5036087;28;20405;-69
2022/09/16 01:09:26;;;;;;;8.15;1.20;;;;;;;;;;5044023;28;20037;-69
2022/09/16 01:11:52;;;;;;;13.43;1.48;;;;;;;;;;5042427;28;20040;-68
2022/09/16 01:17:16;;;;;;;6.93;1.27;;;;;;;;;;5045377;28;20109;-69
2022/09/16 01:19:52;;;;;;;11.00;1.30;;;;;;;;;;5039448;28;20409;-69
2022/09/16 01:22:34;;;;;;;9.43;1.70;;;;;;;;;;5033954;28;20041;-69
2022/09/16 01:25:10;;;;;;;11.00;1.67;;;;;;;;;;5040492;28;20081;-68
2022/09/16 01:27:39;;;;;;;14.43;1.17;;;;;;;;;;5039136;28;20117;-69
2022/09/16 01:30:06;;;;;;;11.43;1.25;;;;;;;;;;5035708;28;20132;-69
2022/09/16 01:32:39;;;;;;;12.90;1.50;;;;;;;;;;5035500;28;20102;-69
2022/09/16 01:35:29;;;;;;;15.32;1.98;;;;;;;;;;5035764;28;20064;-69
2022/09/16 01:38:07;;;;;;;6.38;1.40;;;;;;;;;;5040513;28;20045;-69
2022/09/16 01:40:47;;;;;;;10.90;1.92;;;;;;;;;;5038071;28;20041;-69
2022/09/16 01:43:20;;;;;;;11.63;1.60;;;;;;;;;;5042266;28;20040;-69
2022/09/16 01:46:06;;;;;;;9.88;1.20;;;;;;;;;;5036333;28;20041;-68
2022/09/16 01:48:34;;;;;;;11.80;1.60;;;;;;;;;;5035595;28;20562;-69
2022/09/16 01:51:02;;;;;;;10.25;1.48;;;;;;;;;;5036686;28;20469;-68
2022/09/16 01:53:32;;;;;;;14.07;1.75;;;;;;;;;;5034697;28;20126;-69
2022/09/16 01:56:03;;;;;;;10.45;1.48;;;;;;;;;;5031150;28;20128;-68
2022/09/16 01:58:41;;;;;;;7.80;1.40;;;;;;;;;;5036260;28;20049;-68
2022/09/16 02:01:11;;;;;;;5.43;0.93;;;;;;;;;;5034953;28;20128;-68
2022/09/16 02:03:40;;;;;;;7.38;1.20;;;;;;;;;;5033228;28;20044;-69
2022/09/16 02:06:08;;;;;;;11.93;1.20;;;;;;;;;;5038064;28;20119;-69
2022/09/16 02:08:40;;;;;;;7.80;1.48;;;;;;;;;;5045561;28;20067;-68
2022/09/16 02:11:08;;;;;;;11.15;1.20;;;;;;;;;;5044339;28;20041;-68
2022/09/16 02:13:36;;;;;;;11.88;2.10;;;;;;;;;;5043135;28;20045;-68
2022/09/16 02:16:05;;;;;;;13.68;2.03;;;;;;;;;;5036865;28;20040;-68
2022/09/16 02:18:34;;;;;;;14.48;1.50;;;;;;;;;;5020973;28;20434;-68
2022/09/16 02:21:02;;;;;;;14.88;1.77;;;;;;;;;;5034776;28;20068;-68
2022/09/16 02:23:32;;;;;;;9.05;1.90;;;;;;;;;;5037228;28;20061;-69
2022/09/16 02:25:59;;;;;;;14.27;1.50;;;;;;;;;;5039223;28;20055;-69
2022/09/16 02:28:30;;;;;;;8.48;1.73;;;;;;;;;;5047379;28;20040;-69
2022/09/16 02:30:57;;;;;;;13.07;1.83;;;;;;;;;;5083232;28;20056;-69
2022/09/16 02:33:27;;;;;;;9.75;1.90;;;;;;;;;;5042020;28;20384;-69
2022/09/16 02:35:55;;;;;;;10.23;1.30;;;;;;;;;;5047041;28;20056;-69
2022/09/16 02:38:25;;;;;;;9.55;1.40;;;;;;;;;;5041214;28;20045;-69
2022/09/16 02:40:56;;;;;;;11.40;1.63;;;;;;;;;;5040831;28;20497;-69
2022/09/16 02:43:23;;;;;;;9.88;1.80;;;;;;;;;;5042787;28;20166;-69
2022/09/16 02:45:54;;;;;;;6.25;1.40;;;;;;;;;;5041336;28;20044;-69
2022/09/16 02:48:31;;;;;;;13.20;1.38;;;;;;;;;;5040870;28;20045;-69
2022/09/16 02:51:04;;;;;;;8.35;1.85;;;;;;;;;;5049179;28;22105;-69
2022/09/16 02:53:45;;;;;;;19.15;1.38;;;;;;;;;;5041868;28;20137;-66
2022/09/16 02:56:28;;;;;;;13.88;1.85;;;;;;;;;;5041321;28;20856;-67
2022/09/16 02:58:55;;;;;;;11.52;2.35;;;;;;;;;;5040364;28;20098;-68
2022/09/16 03:01:21;;;;;;;12.55;1.70;;;;;;;;;;5045658;28;20053;-68
2022/09/16 03:03:48;;;;;;;13.60;1.88;;;;;;;;;;5043365;28;20044;-69
2022/09/16 03:06:16;;;;;;;16.27;2.28;;;;;;;;;;5039501;28;20049;-69
2022/09/16 03:08:43;;;;;;;6.63;1.52;;;;;;;;;;5046572;28;20098;-69
2022/09/16 03:11:10;;;;;;;10.95;2.15;;;;;;;;;;5042461;28;20106;-69
2022/09/16 03:13:45;;;;;;;15.98;1.55;;;;;;;;;;5043548;28;20052;-69
2022/09/16 03:16:17;;;;;;;14.00;1.70;;;;;;;;;;5044366;28;20051;-69
2022/09/16 03:18:44;;;;;;;12.38;1.92;;;;;;;;;;5042079;28;20056;-68
2022/09/16 03:21:17;;;;;;;15.38;1.80;;;;;;;;;;5043228;28;20175;-68
2022/09/16 03:23:44;;;;;;;21.42;2.72;;;;;;;;;;5042202;28;20063;-68
2022/09/16 03:26:10;;;;;;;15.20;2.65;;;;;;;;;;5045526;28;20113;-68
2022/09/16 03:28:42;;;;;;;13.85;2.92;;;;;;;;;;5044822;28;20503;-68
2022/09/16 03:31:10;;;;;;;12.35;2.20;;;;;;;;;;5040132;28;20048;-68
2022/09/16 03:33:47;;;;;;;16.23;2.30;;;;;;;;;;5042228;28;20033;-68
2022/09/16 03:36:14;;;;;;;16.55;2.33;;;;;;;;;;5039039;28;20133;-68
2022/09/16 03:38:41;;;;;;;16.98;2.92;;;;;;;;;;5036854;28;20045;-69
2022/09/16 03:41:08;;;;;;;15.73;1.75;;;;;;;;;;5041890;28;20066;-69
2022/09/16 03:43:34;;;;;;;13.18;1.90;;;;;;;;;;5035121;28;20190;-68
2022/09/16 03:46:00;;;;;;;12.07;2.20;;;;;;;;;;5042692;28;20388;-69
2022/09/16 03:48:27;;;;;;;17.00;2.58;;;;;;;;;;5038399;28;20422;-69
2022/09/16 03:50:53;;;;;;;22.08;3.65;;;;;;;;;;5036670;28;20052;-69
2022/09/16 03:53:19;;;;;;;16.48;2.63;;;;;;;;;;5034177;28;20049;-68
2022/09/16 03:55:48;;;;;;;12.85;1.67;;;;;;;;;;5035297;28;20488;-69
2022/09/16 03:58:14;;;;;;;11.98;2.40;;;;;;;;;;5033940;28;20443;-69
2022/09/16 04:00:40;;;;;;;16.75;3.38;;;;;;;;;;5041691;28;20331;-69
2022/09/16 04:03:06;;;;;;;11.15;2.08;;;;;;;;;;5033461;28;20044;-68
2022/09/16 04:05:32;;;;;;;15.25;2.05;;;;;;;;;;5044605;28;20127;-69
2022/09/16 04:07:59;;;;;;;20.35;2.03;;;;;;;;;;5038066;28;20044;-68
2022/09/16 04:10:25;;;;;;;12.20;1.80;;;;;;;;;;5050251;28;20040;-69
2022/09/16 04:12:51;;;;;;;13.15;3.10;;;;;;;;;;5054055;28;20124;-68
2022/09/16 04:15:17;;;;;;;12.38;2.42;;;;;;;;;;5048876;28;20109;-68
2022/09/16 04:17:43;;;;;;;14.52;2.08;;;;;;;;;;5048709;28;20098;-69
2022/09/16 04:20:09;;;;;;;15.45;1.65;;;;;;;;;;5051203;28;20076;-68
2022/09/16 04:22:36;;;;;;;12.85;1.80;;;;;;;;;;5049811;28;20434;-68
2022/09/16 04:25:03;;;;;;;16.02;2.53;;;;;;;;;;5042817;28;20041;-68
2022/09/16 04:27:29;;;;;;;13.35;2.97;;;;;;;;;;5030795;28;20048;-68
2022/09/16 04:29:55;;;;;;;9.68;1.85;;;;;;;;;;5038762;28;20056;-68
2022/09/16 04:32:21;;;;;;;9.48;1.42;;;;;;;;;;5040583;28;20105;-68
2022/09/16 04:34:47;;;;;;;10.85;1.67;;;;;;;;;;5039697;28;20045;-68
2022/09/16 04:37:14;;;;;;;14.95;1.85;;;;;;;;;;5042414;28;20044;-68
2022/09/16 04:39:40;;;;;;;19.27;2.22;;;;;;;;;;5046359;28;20079;-72
2022/09/16 04:42:06;;;;;;;16.98;2.92;;;;;;;;;;5041985;28;20038;-68
2022/09/16 04:44:32;;;;;;;10.52;1.60;;;;;;;;;;5042477;28;20045;-68
2022/09/16 04:46:59;;;;;;;13.95;1.92;;;;;;;;;;5045047;28;20158;-69
2022/09/16 04:49:26;;;;;;;13.32;1.60;;;;;;;;;;5054753;28;20401;-67
2022/09/16 04:51:52;;;;;;;13.73;1.60;;;;;;;;;;5050838;28;20049;-67
2022/09/16 04:54:18;;;;;;;12.98;1.40;;;;;;;;;;5047450;28;20453;-68
2022/09/16 04:56:45;;;;;;;11.93;1.90;;;;;;;;;;5044735;28;20102;-69
2022/09/16 04:59:11;;;;;;;12.13;1.67;;;;;;;;;;5046557;28;20048;-70
2022/09/16 05:01:38;;;;;;;9.18;1.25;;;;;;;;;;5045344;28;20060;-69
2022/09/16 05:04:05;;;;;;;11.48;1.83;;;;;;;;;;5046906;28;20122;-70
2022/09/16 05:06:33;;;;;;;10.85;2.17;;;;;;;;;;5062341;28;20136;-70
2022/09/16 05:09:00;;;;;;;11.18;2.00;;;;;;;;;;5041658;28;20052;-69
2022/09/16 05:11:27;;;;;;;17.00;2.30;;;;;;;;;;5043513;28;20073;-70
2022/09/16 05:13:53;;;;;;;14.98;2.30;;;;;;;;;;5046729;28;20045;-70
2022/09/16 05:16:21;;;;;;;14.57;1.70;;;;;;;;;;5043941;28;20057;-70
2022/09/16 05:18:48;;;;;;;12.65;2.05;;;;;;;;;;5045333;28;20081;-70
2022/09/16 05:21:16;;;;;;;12.05;2.22;;;;;;;;;;5041533;28;20053;-70
2022/09/16 05:23:42;;;;;;;11.80;2.35;;;;;;;;;;5044693;28;20036;-71
2022/09/16 05:26:11;;;;;;;11.80;2.25;;;;;;;;;;5044546;28;20037;-70
2022/09/16 05:28:37;;;;;;;11.45;2.08;;;;;;;;;;5042855;28;20057;-70
2022/09/16 05:31:11;;;;;;;12.30;1.98;;;;;;;;;;5058289;28;20468;-71
2022/09/16 05:33:38;;;;;;;15.20;1.88;;;;;;;;;;5046264;28;20087;-71
2022/09/16 05:36:05;;;;;;;8.05;1.52;;;;;;;;;;5068859;28;20044;-71
2022/09/16 05:38:31;;;;;;;13.98;1.95;;;;;;;;;;5064110;28;20041;-71
2022/09/16 05:40:59;;;;;;;19.23;2.95;;;;;;;;;;5063829;28;20041;-71
2022/09/16 05:43:25;;;;;;;13.82;2.05;;;;;;;;;;5072067;28;20188;-71
2022/09/16 05:45:52;;;;;;;8.25;1.80;;;;;;;;;;5058668;28;20119;-71
2022/09/16 05:48:18;;;;;;;20.40;2.03;;;;;;;;;;5071421;28;20047;-71
2022/09/16 05:50:51;;;;;;;17.48;1.85;;;;;;;;;;5056813;28;20047;-71
2022/09/16 05:53:17;;;;;;;14.98;2.30;;;;;;;;;;5067083;28;20040;-71
2022/09/16 05:55:53;;;;;;;21.48;2.28;;;;;;;;;;5063099;28;20062;-71
2022/09/16 05:58:19;;;;;;;14.55;2.10;;;;;;;;;;5064682;28;20361;-71
2022/09/16 06:00:45;;;;;;;19.73;2.00;;;;;;;;;;5063846;28;20499;-71
2022/09/16 06:03:12;;;;;;;12.95;2.22;;;;;;;;;;5062366;28;20055;-71
2022/09/16 06:05:38;;;;;;;14.70;1.90;;;;;;;;;;5059771;28;20040;-71
2022/09/16 06:08:04;;;;;;;14.38;2.13;;;;;;;;;;5064901;28;20045;-71
2022/09/16 06:10:31;;;;;;;15.25;1.83;;;;;;;;;;5062662;28;20048;-71
2022/09/16 06:12:57;;;;;;;7.47;1.70;;;;;;;;;;5064760;28;20040;-71
2022/09/16 06:15:23;;;;;;;19.63;3.15;;;;;;;;;;5060801;28;20048;-70
2022/09/16 06:17:49;;;;;;;15.07;1.80;;;;;;;;;;5061708;28;20084;-71
2022/09/16 06:20:15;;;;;;;10.65;1.85;;;;;;;;;;5065232;28;20080;-71
2022/09/16 06:22:42;;;;;;;14.73;1.98;;;;;;;;;;5062892;28;20083;-71
2022/09/16 06:25:08;;;;;;;14.95;1.73;;;;;;;;;;5052180;28;20416;-71
2022/09/16 06:27:34;;;;;;;18.52;2.40;;;;;;;;;;5048724;28;20436;-71
2022/09/16 06:30:00;;;;;;;15.68;2.10;;;;;;;;;;5053967;28;20107;-71
2022/09/16 06:32:30;;;;;;;16.08;3.10;;;;;;;;;;5057108;28;20060;-71
2022/09/16 06:34:56;;;;;;;15.10;2.50;;;;;;;;;;5054077;28;20090;-70
2022/09/16 06:37:22;;;;;;;12.07;1.90;;;;;;;;;;5055276;28;20094;-70
2022/09/16 06:39:48;;;;;;;10.15;1.80;;;;;;;;;;5055747;28;20044;-70
2022/09/16 06:42:14;;;;;;;16.95;2.65;;;;;;;;;;5053686;28;20561;-70
2022/09/16 06:44:41;;;;;;;13.57;2.00;;;;;;;;;;5058065;28;20033;-69
2022/09/16 06:47:07;;;;;;;17.88;2.90;;;;;;;;;;5053672;28;20074;-69
2022/09/16 06:49:33;;;;;;;11.18;1.75;;;;;;;;;;5054433;28;20041;-71
2022/09/16 06:51:59;;;;;;;8.50;1.50;;;;;;;;;;5058077;28;20407;-70
2022/09/16 06:54:26;;;;;;;14.48;2.20;;;;;;;;;;5063233;28;20413;-70
2022/09/16 06:56:52;;;;;;;13.20;1.67;;;;;;;;;;5063402;28;20040;-70
2022/09/16 06:59:18;;;;;;;17.05;3.05;;;;;;;;;;5063325;28;20080;-70
2022/09/16 07:01:44;;;;;;;17.60;2.55;;;;;;;;;;5055782;28;20055;-70
2022/09/16 07:04:12;;;;;;;9.70;1.63;;;;;;;;;;5063589;28;20203;-70
2022/09/16 07:06:39;;;;;;;18.92;2.22;;;;;;;;;;5063544;28;20504;-70
2022/09/16 07:09:05;;;;;;;14.48;2.63;;;;;;;;;;5058476;28;20434;-70
2022/09/16 07:11:32;;;;;;;13.52;2.13;;;;;;;;;;5057519;28;20061;-70
2022/09/16 07:13:59;;;;;;;16.52;3.65;;;;;;;;;;5058439;28;20071;-70
2022/09/16 07:16:26;;;;;;;19.65;2.50;;;;;;;;;;5064131;28;20052;-70
2022/09/16 07:18:54;;;;;;;14.15;2.50;;;;;;;;;;5058868;28;20040;-70
2022/09/16 07:21:23;;;;;;;10.85;2.20;;;;;;;;;;5060956;28;20123;-70
2022/09/16 07:23:49;;;;;;;16.67;2.03;;;;;;;;;;5068120;28;20044;-70
2022/09/16 07:26:18;;;;;;;20.13;4.03;;;;;;;;;;5064610;28;20056;-70
2022/09/16 07:28:45;;;;;;;20.48;3.30;;;;;;;;;;5069692;28;20072;-70
2022/09/16 07:31:13;;;;;;;19.77;2.53;;;;;;;;;;5061468;28;20040;-70
2022/09/16 07:33:41;;;;;;;24.33;3.17;;;;;;;;;;5067578;28;20044;-70
2022/09/16 07:36:09;;;;;;;14.77;2.90;;;;;;;;;;5062114;28;20041;-70
2022/09/16 07:38:35;;;;;;;18.23;3.33;;;;;;;;;;5068226;28;20028;-70
2022/09/16 07:41:06;;;;;;;18.13;2.63;;;;;;;;;;5062373;28;20049;-70
2022/09/16 07:43:32;;;;;;;21.23;3.67;;;;;;;;;;5069204;28;20070;-70
2022/09/16 07:45:58;;;;;;;16.20;3.08;;;;;;;;;;5062818;28;20377;-70
2022/09/16 07:48:25;;;;;;;21.75;2.90;;;;;;;;;;5066004;28;20033;-70
2022/09/16 07:50:56;;;;;;;20.27;3.00;;;;;;;;;;5069045;28;20403;-70
2022/09/16 07:53:22;;;;;;;16.42;3.72;;;;;;;;;;5061836;28;20056;-70
2022/09/16 07:55:48;;;;;;;16.08;3.25;;;;;;;;;;5060684;28;20467;-66
2022/09/16 07:58:14;;;;;;;20.00;3.88;;;;;;;;;;5054488;28;20063;-70
2022/09/16 08:00:42;;;;;;;17.05;2.72;;;;;;;;;;5059496;28;20044;-68
2022/09/16 08:03:09;;;;;;;20.80;2.55;;;;;;;;;;5058005;28;20045;-71
2022/09/16 08:05:35;;;;;;;15.75;2.20;;;;;;;;;;5053995;28;20075;-70
2022/09/16 08:08:01;;;;;;;18.58;2.47;;;;;;;;;;5056051;28;20507;-71
2022/09/16 08:10:28;;;;;;;11.60;1.92;;;;;;;;;;5059491;28;20447;-71
2022/09/16 08:12:54;;;;;;;12.68;1.65;;;;;;;;;;5055871;28;20370;-71
2022/09/16 08:15:20;;;;;;;16.55;2.22;;;;;;;;;;5057593;28;20052;-71
2022/09/16 08:17:46;;;;;;;15.23;2.92;;;;;;;;;;5038701;28;20041;-72
2022/09/16 08:20:13;;;;;;;8.88;1.30;;;;;;;;;;5060461;28;20098;-71
2022/09/16 08:22:39;;;;;;;9.25;1.85;;;;;;;;;;5058425;28;20503;-71
2022/09/16 08:25:05;;;;;;;13.18;2.35;;;;;;;;;;5057308;28;20059;-71
2022/09/16 08:27:35;;;;;;;16.55;2.20;;;;;;;;;;5057417;28;20071;-71
2022/09/16 08:30:01;;;;;;;10.77;1.77;;;;;;;;;;5056061;28;20099;-71
2022/09/16 08:32:27;;;;;;;13.85;2.20;;;;;;;;;;5059388;28;20044;-68
2022/09/16 08:34:53;;;;;;;12.80;2.47;;;;;;;;;;5056341;28;20140;-70
2022/09/16 08:37:19;;;;;;;19.08;3.42;;;;;;;;;;5048340;28;20056;-84
2022/09/16 08:39:47;;;;;;;18.73;2.70;;;;;;;;;;5053637;28;20522;-71
2022/09/16 08:42:23;;;;;;;9.38;2.00;;;;;;;;;;5056565;28;20048;-78
2022/09/16 08:45:03;;;;;;;13.45;2.28;;;;;;;;;;5054487;28;20499;-68
2022/09/16 08:47:33;;;;;;;17.63;2.30;;;;;;;;;;5055377;28;20389;-68
2022/09/16 08:50:02;;;;;;;10.75;1.88;;;;;;;;;;5058676;28;20045;-67
2022/09/16 08:52:30;;;;;;;12.10;2.03;;;;;;;;;;5043909;28;20151;-68
2022/09/16 08:54:59;;;;;;;11.43;1.60;;;;;;;;;;5059083;28;20236;-68
2022/09/16 08:57:27;;;;;;;10.50;1.95;;;;;;;;;;5058777;28;20080;-68
2022/09/16 08:59:57;;;;;;;10.90;1.83;;;;;;;;;;5055252;28;20462;-68
2022/09/16 09:02:30;;;;;;;9.52;1.75;;;;;;;;;;5050588;28;20058;-67
2022/09/16 09:04:57;;;;;;;10.93;2.45;;;;;;;;;;5058639;28;20455;-68
2022/09/16 09:07:24;;;;;;;7.82;1.60;;;;;;;;;;5055498;28;20053;-68
2022/09/16 09:09:57;;;;;;;10.35;2.28;;;;;;;;;;5058941;28;20044;-68
2022/09/16 09:12:38;;;;;;;15.48;2.63;;;;;;;;;;5050244;28;20036;-68
2022/09/16 09:15:22;;;;;;;12.68;2.05;;;;;;;;;;5057496;28;20044;-67
2022/09/16 09:17:58;;;;;;;10.40;2.13;;;;;;;;;;5058111;28;20040;-67
2022/09/16 09:20:27;;;;;;;11.25;2.35;;;;;;;;;;5053699;28;20175;-67
2022/09/16 09:22:54;;;;;;;15.07;3.25;;;;;;;;;;5057637;28;20054;-68
2022/09/16 09:25:25;;;;;;;10.70;1.95;;;;;;;;;;5062224;28;20460;-68
2022/09/16 09:28:04;;;;;;;17.80;2.60;;;;;;;;;;5055873;28;20421;-68
2022/09/16 09:30:31;;;;;;;20.30;3.20;;;;;;;;;;5044348;28;20580;-68
2022/09/16 09:33:19;;;;;;;17.23;3.17;;;;;;;;;;5045718;28;20124;-68
2022/09/16 09:35:51;;;;;;;8.68;2.55;;;;;;;;;;5046389;28;20123;-68
2022/09/16 09:38:36;;;;;;;15.98;2.33;;;;;;;;;;5047970;28;20057;-68
2022/09/16 09:41:08;;;;;;;14.23;2.50;;;;;;;;;;5045656;28;20044;-68
2022/09/16 09:43:37;;;;;;;11.50;2.38;;;;;;;;;;5045529;28;20060;-68
2022/09/16 09:46:06;;;;;;;11.75;2.28;;;;;;;;;;5045987;28;20526;-68
2022/09/16 09:48:36;;;;;;;13.18;2.28;;;;;;;;;;5044370;28;20476;-68
2022/09/16 09:51:06;;;;;;;17.52;2.70;;;;;;;;;;5048449;28;20053;-68
2022/09/16 09:53:42;;;;;;;11.25;2.50;;;;;;;;;;5045448;28;20077;-68
2022/09/16 09:56:18;;;;;;;13.00;2.75;;;;;;;;;;5045065;28;20053;-68
2022/09/16 09:58:48;;;;;;;14.13;2.50;;;;;;;;;;5045829;28;20056;-68
2022/09/16 10:01:15;;;;;;;9.00;1.98;;;;;;;;;;5044467;28;20186;-68
2022/09/16 10:03:41;;;;;;;10.95;1.90;;;;;;;;;;5044338;28;20041;-68
2022/09/16 10:06:09;;;;;;;13.73;2.85;;;;;;;;;;5046460;28;20037;-68
2022/09/16 10:08:45;;;;;;;9.45;1.80;;;;;;;;;;5044905;28;20046;-68
2022/09/16 10:11:29;;;;;;;13.60;2.30;;;;;;;;;;5045924;28;20054;-68
2022/09/16 10:13:58;;;;;;;13.00;2.53;;;;;;;;;;5046535;28;20045;-68
2022/09/16 10:16:28;;;;;;;18.40;2.80;;;;;;;;;;5050525;28;20049;-68
2022/09/16 10:18:58;;;;;;;13.65;2.33;;;;;;;;;;5032369;28;20049;-67
2022/09/16 10:21:25;;;;;;;9.77;2.17;;;;;;;;;;5046888;28;20044;-66
2022/09/16 10:23:57;;;;;;;10.75;2.55;;;;;;;;;;5033401;28;20047;-66
2022/09/16 10:26:26;;;;;;;17.48;3.05;;;;;;;;;;5042044;28;20134;-66
2022/09/16 10:29:00;;;;;;;14.13;2.58;;;;;;;;;;5040165;28;20397;-66
2022/09/16 10:31:29;;;;;;;12.68;2.10;;;;;;;;;;5040439;28;20109;-66
2022/09/16 10:33:56;;;;;;;15.65;2.25;;;;;;;;;;5051909;28;20105;-66
2022/09/16 10:36:25;;;;;;;12.52;2.38;;;;;;;;;;5060293;28;20044;-66
2022/09/16 10:38:54;;;;;;;11.52;2.00;;;;;;;;;;5059133;28;20052;-66
2022/09/16 10:41:27;;;;;;;8.80;2.00;;;;;;;;;;5064684;28;20047;-66
2022/09/16 10:43:56;;;;;;;14.05;2.78;;;;;;;;;;5059953;28;20635;-67
2022/09/16 10:46:22;;;;;;;13.80;2.20;;;;;;;;;;5060577;28;20037;-66
2022/09/16 10:48:50;;;;;;;15.32;2.28;;;;;;;;;;5051967;28;20041;-67
2022/09/16 10:51:22;;;;;;;16.00;3.05;;;;;;;;;;5055533;28;20496;-67
2022/09/16 10:53:52;;;;;;;14.98;2.38;;;;;;;;;;5052887;28;20452;-67
2022/09/16 10:56:20;;;;;;;13.98;2.30;;;;;;;;;;5056633;28;20113;-67
2022/09/16 10:58:47;;;;;;;12.32;2.03;;;;;;;;;;5065273;28;20397;-67
2022/09/16 11:01:13;;;;;;;10.68;2.17;;;;;;;;;;5059149;28;20051;-67
2022/09/16 11:03:40;;;;;;;13.15;2.47;;;;;;;;;;5044828;28;20048;-67
2022/09/16 11:06:11;;;;;;;10.60;2.20;;;;;;;;;;5045125;28;20125;-68
2022/09/16 11:08:45;;;;;;;11.55;2.22;;;;;;;;;;5047437;28;20068;-67
2022/09/16 11:11:12;;;;;;;15.00;2.47;;;;;;;;;;5043831;28;20738;-68
2022/09/16 11:13:44;;;;;;;15.45;2.67;;;;;;;;;;5045430;28;20044;-68
2022/09/16 11:16:20;;;;;;;10.38;2.58;;;;;;;;;;5044148;28;20041;-69
2022/09/16 11:18:53;;;;;;;12.50;2.22;;;;;;;;;;5046148;28;20053;-69
2022/09/16 11:21:19;;;;;;;12.20;1.95;;;;;;;;;;5045032;28;20052;-70
2022/09/16 11:23:46;;;;;;;11.20;2.13;;;;;;;;;;5050854;28;20067;-69
2022/09/16 11:26:16;;;;;;;10.65;1.77;;;;;;;;;;5040254;28;20044;-70
2022/09/16 11:28:49;;;;;;;9.73;1.80;;;;;;;;;;5037452;28;20042;-69
2022/09/16 11:31:24;;;;;;;16.42;2.97;;;;;;;;;;5042276;28;20167;-69
2022/09/16 11:33:57;;;;;;;11.52;2.50;;;;;;;;;;5034196;28;20037;-70
2022/09/16 11:36:23;;;;;;;;;;;;;;;;;;5034870;28;20484;-69
2022/09/16 11:38:59;;;;;;;11.52;2.38;;;;;;;;;;5045303;28;19925;-69
2022/09/16 11:41:33;;;;;;;12.43;2.78;;;;;;;;;;5039723;28;20059;-69
2022/09/16 11:44:10;;;;;;;12.77;2.78;;;;;;;;;;5040140;28;20143;-69
2022/09/16 11:46:43;;;;;;;12.40;2.40;;;;;;;;;;5033364;28;21882;-69
2022/09/16 11:49:18;;;;;;;15.02;2.63;;;;;;;;;;5036226;28;20417;-69
2022/09/16 11:52:00;;;;;;;19.50;3.47;;;;;;;;;;5036492;28;20059;-69
2022/09/16 11:54:45;;;;;;;20.02;2.85;;;;;;;;;;5035977;28;20036;-69
2022/09/16 11:57:14;;;;;;;15.38;3.35;;;;;;;;;;5034019;28;20634;-69
2022/09/16 11:59:48;;;;;;;15.15;2.47;;;;;;;;;;5038928;28;20417;-68
2022/09/16 12:02:39;;;;;;;13.90;3.00;;;;;;;;;;5035525;28;20626;-69
2022/09/16 12:05:05;;;;;;;16.90;2.55;;;;;;;;;;5074964;28;20098;-68
2022/09/16 12:07:36;;;;;;;16.98;2.50;;;;;;;;;;5041372;28;20055;-68
2022/09/16 12:10:06;;;;;;;16.00;2.60;;;;;;;;;;5035296;28;20409;-69
2022/09/16 12:12:36;;;;;;;18.02;3.10;;;;;;;;;;5036800;28;20501;-69
2022/09/16 12:15:06;;;;;;;15.68;3.42;;;;;;;;;;5036590;28;20052;-69
2022/09/16 12:17:34;;;;;;;18.00;3.28;;;;;;;;;;5036175;28;20044;-69
2022/09/16 12:20:06;;;;;;;16.00;3.90;;;;;;;;;;5033533;28;20065;-69
2022/09/16 12:22:37;;;;;;;17.23;3.20;;;;;;;;;;5035648;28;21930;-68
2022/09/16 12:25:08;;;;;;;17.13;3.70;;;;;;;;;;5035964;28;20044;-68
2022/09/16 12:27:44;;;;;;;23.02;5.15;;;;;;;;;;5036808;28;20077;-68
2022/09/16 12:30:15;;;;;;;22.10;4.07;;;;;;;;;;5035658;28;20045;-68
2022/09/16 12:32:46;;;;;;;12.77;3.20;;;;;;;;;;5039165;28;20373;-69
2022/09/16 12:35:15;;;;;;;14.15;2.90;;;;;;;;;;5032770;28;20056;-69
2022/09/16 12:37:46;;;;;;;10.65;3.13;;;;;;;;;;5047225;28;20064;-69
2022/09/16 12:40:16;;;;;;;13.77;3.00;;;;;;;;;;5036411;28;20460;-69
2022/09/16 12:43:03;;;;;;;11.93;2.25;;;;;;;;;;5040901;28;20063;-71
2022/09/16 12:45:39;;;;;;;12.18;2.13;;;;;;;;;;5077375;28;20591;-69
2022/09/16 12:48:06;;;;;;;14.50;2.67;;;;;;;;;;5043417;28;20044;-69
2022/09/16 12:50:38;;;;;;;12.57;2.50;;;;;;;;;;5046862;28;20083;-69
2022/09/16 12:53:05;;;;;;;9.48;2.22;;;;;;;;;;5046410;28;20392;-69
2022/09/16 12:55:44;;;;;;;11.63;2.35;;;;;;;;;;5035655;28;20075;-84
2022/09/16 12:58:10;;;;;;;13.32;3.05;;;;;;;;;;5043470;28;20047;-69
2022/09/16 13:00:50;;;;;;;15.38;2.53;;;;;;;;;;5047458;28;20139;-70
2022/09/16 13:03:18;;;;;;;11.98;3.17;;;;;;;;;;5044651;28;20056;-69
2022/09/16 13:05:46;;;;;;;21.25;3.72;;;;;;;;;;5049270;28;20040;-69
2022/09/16 13:08:21;;;;;;;23.48;3.65;;;;;;;;;;5047230;28;20037;-69
2022/09/16 13:10:54;;;;;;;15.82;3.88;;;;;;;;;;5038707;28;20037;-69
2022/09/16 13:13:26;;;;;;;15.52;2.88;;;;;;;;;;5038808;28;20049;-69
2022/09/16 13:15:56;;;;;;;20.20;4.10;;;;;;;;;;5056729;28;20072;-69
2022/09/16 13:18:26;;;;;;;12.90;2.60;;;;;;;;;;5038008;28;20804;-69
2022/09/16 13:20:57;;;;;;;17.52;2.55;;;;;;;;;;5033533;28;20497;-69
2022/09/16 13:23:26;;;;;;;16.60;3.53;;;;;;;;;;5037938;28;20029;-69
2022/09/16 13:25:59;;;;;;;15.63;2.80;;;;;;;;;;5036091;28;20098;-69
2022/09/16 13:28:35;;;;;;;19.13;3.60;;;;;;;;;;5034434;28;20079;-70
2022/09/16 13:31:11;;;;;;;16.20;3.20;;;;;;;;;;5039229;28;20607;-69
2022/09/16 13:33:38;;;;;;;19.05;4.47;;;;;;;;;;5035043;28;20131;-69
2022/09/16 13:36:19;;;;;;;18.58;2.72;;;;;;;;;;5038051;28;20128;-69
2022/09/16 13:38:48;;;;;;;19.63;3.45;;;;;;;;;;5039892;28;20051;-69
2022/09/16 13:41:28;;;;;;;17.77;3.25;;;;;;;;;;5041572;28;20064;-69
2022/09/16 13:43:54;;;;;;;16.38;4.28;;;;;;;;;;5033749;28;20037;-69
2022/09/16 13:46:27;;;;;;;17.98;2.80;;;;;;;;;;5043889;28;20405;-69
2022/09/16 13:48:53;;;;;;;;;;;;;;;;;;5036276;28;20094;-69
2022/09/16 13:51:21;;;;;;;16.38;3.00;;;;;;;;;;5037578;28;19948;-68
2022/09/16 13:53:48;;;;;;;16.45;3.15;;;;;;;;;;5042658;28;20037;-69
2022/09/16 13:56:22;;;;;;;16.88;2.90;;;;;;;;;;5034975;28;20057;-68
2022/09/16 13:58:51;;;;;;;16.65;3.08;;;;;;;;;;5055392;28;20037;-68
2022/09/16 14:01:21;;;;;;;12.82;2.60;;;;;;;;;;5046187;28;20079;-68
2022/09/16 14:04:00;;;;;;;13.80;2.40;;;;;;;;;;5036984;28;20631;-69
2022/09/16 14:06:39;;;;;;;15.18;3.22;;;;;;;;;;5039340;28;20056;-69
2022/09/16 14:09:09;;;;;;;18.23;2.40;;;;;;;;;;5043899;28;20063;-68
2022/09/16 14:11:35;;;;;;;17.08;2.45;;;;;;;;;;5052240;28;20560;-68
2022/09/16 14:14:03;;;;;;;15.35;2.67;;;;;;;;;;5055779;28;20072;-68
2022/09/16 14:16:30;;;;;;;18.20;2.88;;;;;;;;;;5058862;28;20505;-67
2022/09/16 14:19:00;;;;;;;14.82;3.03;;;;;;;;;;5051441;28;21899;-67
2022/09/16 14:21:26;;;;;;;12.43;2.10;;;;;;;;;;5054480;28;20464;-68
2022/09/16 14:23:52;;;;;;;18.20;3.50;;;;;;;;;;5053619;28;20564;-68
2022/09/16 14:26:20;;;;;;;18.73;3.00;;;;;;;;;;5047892;28;20048;-67
2022/09/16 14:28:46;;;;;;;21.98;3.78;;;;;;;;;;5046705;28;20076;-67
2022/09/16 14:31:15;;;;;;;23.77;3.10;;;;;;;;;;5051094;28;20500;-68
2022/09/16 14:33:43;;;;;;;22.60;3.95;;;;;;;;;;5047148;28;20456;-67
2022/09/16 14:36:26;;;;;;;18.02;3.00;;;;;;;;;;5045730;28;20040;-67
2022/09/16 14:38:58;;;;;;;15.07;2.20;;;;;;;;;;5042741;28;20044;-67
2022/09/16 14:41:28;;;;;;;8.90;1.40;;;;;;;;;;5044230;28;20380;-67
2022/09/16 14:43:56;;;;;;;12.02;1.60;;;;;;;;;;5046222;28;20045;-77
2022/09/16 14:46:22;;;;;;;11.95;2.28;;;;;;;;;;5046494;28;20473;-67
2022/09/16 14:48:48;;;;;;;10.68;1.90;;;;;;;;;;5053338;28;20493;-67